createdAt,value
2022-11-27T00:00:22.150Z,36.77
2022-11-27T00:05:56.229Z,40.23
2022-11-27T00:11:05.231Z,39.23
2022-11-27T00:16:08.784Z,34.30
2022-11-27T00:21:14.511Z,38.83
2022-11-27T00:26:17.477Z,38.50
2022-11-27T05:34:41.739Z,38.90
2022-11-27T05:39:44.829Z,38.87
2022-11-27T05:44:48.087Z,36.90
2022-11-27T05:49:51.163Z,46.00
2022-11-27T05:54:55.067Z,40.63
2022-11-27T05:59:58.702Z,40.37
2022-11-27T06:05:01.922Z,46.20
2022-11-27T06:10:05.546Z,35.47
2022-11-27T06:15:09.177Z,38.97
2022-11-27T06:20:12.665Z,43.00
2022-11-27T06:25:16.069Z,46.17
2022-11-27T06:30:19.560Z,42.87
2022-11-27T06:35:23.062Z,43.30
2022-11-27T06:40:26.375Z,45.20
2022-11-27T06:45:29.798Z,41.83
2022-11-27T06:50:32.997Z,52.47
2022-11-27T06:55:38.961Z,53.00
2022-11-27T07:00:42.594Z,49.77
2022-11-27T07:05:46.012Z,48.70
2022-11-27T07:10:49.481Z,44.57
2022-11-27T07:15:52.773Z,48.07
2022-11-27T07:20:56.845Z,43.10
2022-11-27T07:26:05.054Z,46.13
2022-11-27T07:31:08.424Z,53.90
2022-11-27T07:36:18.120Z,49.73
2022-11-27T07:41:21.636Z,43.47
2022-11-27T07:46:25.779Z,40.10
2022-11-27T07:51:29.101Z,42.10
2022-11-27T07:56:32.297Z,42.63
2022-11-27T08:01:35.972Z,42.73
2022-11-27T08:06:39.322Z,43.90
2022-11-27T08:11:42.311Z,37.60
2022-11-27T08:16:45.210Z,31.37
2022-11-27T08:21:48.347Z,26.33
2022-11-27T08:26:52.409Z,28.63
2022-11-27T08:31:55.670Z,30.10
2022-11-27T08:36:59.216Z,28.03
2022-11-27T08:42:02.571Z,27.50
2022-11-27T08:47:05.743Z,25.20
2022-11-27T08:52:08.808Z,25.17
2022-11-27T08:57:12.298Z,16.10
2022-11-27T09:02:15.521Z,16.63
2022-11-27T09:07:18.475Z,17.13
2022-11-27T09:12:22.162Z,19.90
2022-11-27T09:17:25.084Z,14.90
2022-11-27T09:22:28.151Z,16.23
2022-11-27T09:27:30.970Z,16.37
2022-11-27T09:32:33.859Z,16.00
2022-11-27T09:37:36.679Z,19.47
2022-11-27T09:42:48.851Z,19.43
2022-11-27T09:48:01.892Z,20.63
2022-11-27T09:53:24.604Z,17.50
2022-11-27T09:58:41.218Z,26.73
2022-11-27T10:03:45.465Z,20.60
2022-11-27T10:08:52.104Z,20.17
2022-11-27T10:14:25.954Z,18.73
2022-11-27T10:19:47.188Z,18.20
2022-11-27T10:25:03.869Z,21.70
2022-11-27T10:30:18.917Z,17.90
2022-11-27T10:35:25.209Z,19.93
2022-11-27T10:40:51.028Z,20.33
2022-11-27T10:46:04.131Z,18.23
2022-11-27T10:51:24.901Z,18.33
2022-11-27T10:56:56.445Z,18.10
2022-11-27T11:02:01.264Z,18.10
2022-11-27T11:07:04.366Z,16.50
2022-11-27T11:12:21.122Z,18.70
2022-11-27T11:17:34.271Z,15.90
2022-11-27T11:22:37.244Z,14.33
2022-11-27T11:27:44.135Z,16.00
2022-11-27T11:32:49.503Z,17.07
2022-11-27T11:37:53.096Z,20.80
2022-11-27T11:42:58.321Z,15.47
2022-11-27T11:48:03.355Z,16.93
2022-11-27T11:53:31.256Z,18.57
2022-11-27T11:59:05.656Z,12.00
2022-11-27T12:04:45.086Z,12.00
2022-11-27T12:10:26.059Z,12.50
2022-11-27T12:16:19.804Z,11.87
2022-11-27T12:21:35.541Z,8.13
2022-11-27T12:27:20.681Z,10.20
2022-11-27T12:32:48.571Z,9.10
2022-11-27T12:38:28.984Z,6.73
2022-11-27T12:43:36.244Z,10.67
2022-11-27T12:48:52.175Z,9.77
2022-11-27T12:53:59.653Z,6.00
2022-11-27T12:59:35.665Z,5.93
2022-11-27T13:05:07.094Z,6.40
2022-11-27T13:10:21.838Z,10.87
2022-11-27T13:15:52.699Z,8.30
2022-11-27T13:20:56.357Z,13.53
2022-11-27T13:26:00.333Z,13.73
2022-11-27T13:31:03.808Z,13.57
2022-11-27T13:36:09.065Z,16.73
2022-11-27T13:41:21.875Z,12.70
2022-11-27T13:46:27.724Z,9.43
2022-11-27T13:51:33.725Z,8.90
2022-11-27T13:56:41.084Z,9.80
2022-11-27T14:01:58.338Z,9.20
2022-11-27T14:07:07.179Z,13.00
2022-11-27T14:12:31.973Z,13.03
2022-11-27T14:17:41.183Z,10.63
2022-11-27T14:23:10.095Z,12.33
2022-11-27T14:28:22.033Z,9.97
2022-11-27T14:33:59.594Z,13.93
2022-11-27T14:38:59.373Z,14.40
2022-11-27T14:44:07.828Z,13.23
2022-11-27T14:49:30.817Z,14.97
2022-11-27T14:54:43.605Z,15.33
2022-11-27T14:59:46.881Z,15.60
2022-11-27T15:04:50.193Z,15.73
2022-11-27T15:09:56.170Z,13.73
2022-11-27T15:15:30.887Z,16.77
2022-11-27T15:20:45.310Z,21.53
2022-11-27T15:26:15.947Z,20.93
2022-11-27T15:31:33.817Z,25.03
2022-11-27T15:36:38.328Z,15.07
2022-11-27T15:42:09.693Z,17.93
2022-11-27T15:47:32.649Z,19.50
2022-11-27T15:52:38.950Z,23.03
2022-11-27T15:57:42.976Z,20.63
2022-11-27T16:02:49.417Z,20.80
2022-11-27T16:07:55.388Z,24.20
2022-11-27T16:12:59.400Z,32.33
2022-11-27T16:18:02.645Z,36.60
2022-11-27T16:23:05.601Z,34.97
2022-11-27T16:28:08.563Z,40.43
2022-11-27T16:33:12.010Z,34.53
2022-11-27T16:38:15.284Z,30.10
2022-11-27T16:43:18.266Z,31.07
2022-11-27T16:48:21.330Z,21.50
2022-11-27T16:53:24.315Z,27.87
2022-11-27T16:58:27.529Z,33.10
2022-11-27T17:03:30.295Z,27.90
2022-11-27T17:08:33.155Z,28.43
2022-11-27T17:13:36.087Z,27.63
2022-11-27T17:18:40.368Z,28.90
2022-11-27T17:23:46.737Z,30.03
2022-11-27T17:28:50.018Z,27.40
2022-11-27T17:33:56.999Z,30.67
2022-11-27T17:39:02.893Z,33.97
2022-11-27T17:44:06.651Z,31.70
2022-11-27T17:49:10.558Z,34.17
2022-11-27T17:54:13.810Z,34.30
2022-11-27T17:59:18.044Z,32.27
2022-11-27T18:04:21.163Z,32.67
2022-11-27T18:09:24.346Z,35.53
2022-11-27T18:14:27.600Z,39.40
2022-11-27T18:19:31.846Z,40.70
2022-11-27T18:24:36.082Z,39.23
2022-11-27T18:29:45.783Z,37.60
2022-11-27T18:34:54.330Z,41.00
2022-11-27T18:39:57.466Z,42.63
2022-11-27T18:45:00.708Z,55.20
2022-11-27T18:50:04.455Z,57.00
2022-11-27T18:55:07.680Z,54.70
2022-11-27T19:00:11.464Z,66.30
2022-11-27T19:05:14.922Z,70.97
2022-11-27T19:10:18.657Z,79.90
2022-11-27T19:15:21.532Z,91.83
2022-11-27T19:20:24.793Z,74.63
2022-11-27T19:25:28.083Z,67.40
2022-11-27T19:30:34.017Z,72.27
2022-11-27T19:35:37.715Z,56.57
2022-11-27T19:40:41.659Z,57.40
2022-11-27T19:45:44.855Z,57.30
2022-11-27T19:50:48.332Z,60.83
2022-11-27T19:55:55.465Z,57.53
2022-11-27T20:01:15.860Z,59.97
2022-11-27T20:06:21.488Z,58.20
2022-11-27T20:11:26.686Z,50.00
2022-11-27T20:16:33.719Z,55.57
2022-11-27T20:21:37.675Z,49.27
2022-11-27T20:26:42.839Z,51.43
2022-11-27T20:31:46.502Z,49.80
2022-11-27T20:36:50.045Z,53.70
2022-11-27T20:41:53.678Z,43.30
2022-11-27T20:47:03.262Z,50.53
2022-11-27T20:52:06.630Z,57.70
2022-11-27T20:57:14.272Z,53.77
2022-11-27T21:02:17.754Z,46.23
2022-11-27T21:07:21.721Z,60.20
2022-11-27T21:12:24.950Z,47.83
2022-11-27T21:17:28.203Z,65.60
2022-11-27T21:22:32.149Z,69.10
2022-11-27T21:27:37.366Z,82.83
2022-11-27T21:32:40.505Z,68.63
2022-11-27T21:37:44.119Z,63.03
2022-11-27T21:42:47.343Z,56.80
2022-11-27T21:47:50.554Z,58.50
2022-11-27T21:52:53.809Z,72.67
2022-11-27T21:57:57.002Z,82.27
2022-11-27T22:03:00.235Z,86.60
2022-11-27T22:08:03.608Z,70.70
2022-11-27T22:13:07.005Z,58.17
2022-11-27T22:18:11.934Z,47.70
2022-11-27T22:23:15.285Z,54.33
2022-11-27T22:28:18.469Z,50.50
2022-11-27T22:33:21.775Z,51.53
2022-11-27T22:38:24.999Z,60.97
2022-11-27T22:43:28.260Z,61.43
2022-11-27T22:48:31.508Z,74.47
2022-11-27T22:53:35.012Z,61.23
2022-11-27T22:58:41.646Z,59.50
2022-11-27T23:03:45.505Z,64.43
2022-11-27T23:08:49.552Z,64.90
2022-11-27T23:13:54.764Z,71.47
2022-11-27T23:18:57.990Z,61.67
2022-11-27T23:24:01.283Z,54.97
2022-11-27T23:29:04.798Z,57.27
2022-11-27T23:34:13.215Z,60.70
2022-11-27T23:39:17.097Z,47.00
2022-11-27T23:44:21.023Z,56.10
2022-11-27T23:49:24.160Z,43.60
2022-11-27T23:54:26.985Z,47.70
2022-11-27T23:59:29.790Z,49.53
